sensor_id;sensor_type;location;lat;lon;timestamp;P1;durP1;ratioP1;P2;durP2;ratioP2
38529;SDS011;24301;54.332;48.386;2023-07-20T00:01:25;4.53;;;2.17;;
38529;SDS011;24301;54.332;48.386;2023-07-20T00:03:51;3.45;;;1.73;;
38529;SDS011;24301;54.332;48.386;2023-07-20T00:06:22;3.30;;;1.70;;
38529;SDS011;24301;54.332;48.386;2023-07-20T00:08:50;2.65;;;1.67;;
38529;SDS011;24301;54.332;48.386;2023-07-20T00:11:19;2.17;;;1.88;;
38529;SDS011;24301;54.332;48.386;2023-07-20T00:13:45;2.65;;;1.83;;
38529;SDS011;24301;54.332;48.386;2023-07-20T00:16:11;2.33;;;1.83;;
38529;SDS011;24301;54.332;48.386;2023-07-20T00:18:37;5.97;;;2.50;;
38529;SDS011;24301;54.332;48.386;2023-07-20T00:21:03;3.60;;;2.28;;
38529;SDS011;24301;54.332;48.386;2023-07-20T00:23:29;6.28;;;2.35;;
38529;SDS011;24301;54.332;48.386;2023-07-20T00:25:55;5.30;;;2.35;;
38529;SDS011;24301;54.332;48.386;2023-07-20T00:28:20;5.75;;;2.55;;
38529;SDS011;24301;54.332;48.386;2023-07-20T00:30:48;7.68;;;2.95;;
38529;SDS011;24301;54.332;48.386;2023-07-20T00:33:17;6.38;;;3.13;;
38529;SDS011;24301;54.332;48.386;2023-07-20T00:35:44;3.47;;;2.55;;
38529;SDS011;24301;54.332;48.386;2023-07-20T00:38:17;3.60;;;2.38;;
38529;SDS011;24301;54.332;48.386;2023-07-20T00:40:43;4.63;;;2.63;;
38529;SDS011;24301;54.332;48.386;2023-07-20T00:43:10;5.50;;;2.60;;
38529;SDS011;24301;54.332;48.386;2023-07-20T00:45:36;5.75;;;2.67;;
38529;SDS011;24301;54.332;48.386;2023-07-20T00:48:02;7.57;;;2.55;;
38529;SDS011;24301;54.332;48.386;2023-07-20T00:50:30;5.35;;;2.53;;
38529;SDS011;24301;54.332;48.386;2023-07-20T00:52:57;6.45;;;2.75;;
38529;SDS011;24301;54.332;48.386;2023-07-20T00:55:24;4.68;;;2.40;;
38529;SDS011;24301;54.332;48.386;2023-07-20T00:57:52;7.93;;;3.00;;
38529;SDS011;24301;54.332;48.386;2023-07-20T01:00:18;4.25;;;2.60;;
38529;SDS011;24301;54.332;48.386;2023-07-20T01:02:44;4.38;;;2.53;;
38529;SDS011;24301;54.332;48.386;2023-07-20T01:05:10;2.90;;;2.30;;
38529;SDS011;24301;54.332;48.386;2023-07-20T01:10:40;3.53;;;2.13;;
38529;SDS011;24301;54.332;48.386;2023-07-20T01:13:21;5.30;;;2.50;;
38529;SDS011;24301;54.332;48.386;2023-07-20T01:16:00;3.30;;;2.17;;
38529;SDS011;24301;54.332;48.386;2023-07-20T01:18:27;4.38;;;2.80;;
38529;SDS011;24301;54.332;48.386;2023-07-20T01:21:01;5.13;;;3.20;;
38529;SDS011;24301;54.332;48.386;2023-07-20T01:24:18;6.35;;;2.90;;
38529;SDS011;24301;54.332;48.386;2023-07-20T01:31:51;5.53;;;2.40;;
38529;SDS011;24301;54.332;48.386;2023-07-20T01:34:19;5.00;;;2.28;;
38529;SDS011;24301;54.332;48.386;2023-07-20T01:36:47;4.45;;;2.38;;
38529;SDS011;24301;54.332;48.386;2023-07-20T01:39:17;9.52;;;3.15;;
38529;SDS011;24301;54.332;48.386;2023-07-20T01:41:44;6.15;;;2.60;;
38529;SDS011;24301;54.332;48.386;2023-07-20T01:44:12;3.90;;;2.50;;
38529;SDS011;24301;54.332;48.386;2023-07-20T01:46:40;4.55;;;2.75;;
38529;SDS011;24301;54.332;48.386;2023-07-20T01:49:06;4.03;;;2.03;;
38529;SDS011;24301;54.332;48.386;2023-07-20T01:51:32;6.35;;;2.72;;
38529;SDS011;24301;54.332;48.386;2023-07-20T01:54:07;3.78;;;2.17;;
38529;SDS011;24301;54.332;48.386;2023-07-20T01:56:35;6.80;;;2.50;;
38529;SDS011;24301;54.332;48.386;2023-07-20T01:59:00;4.10;;;2.33;;
38529;SDS011;24301;54.332;48.386;2023-07-20T02:01:26;3.28;;;2.10;;
38529;SDS011;24301;54.332;48.386;2023-07-20T02:03:54;3.17;;;2.40;;
38529;SDS011;24301;54.332;48.386;2023-07-20T02:06:19;4.35;;;2.15;;
38529;SDS011;24301;54.332;48.386;2023-07-20T02:08:47;4.05;;;2.70;;
38529;SDS011;24301;54.332;48.386;2023-07-20T02:11:13;4.55;;;2.20;;
38529;SDS011;24301;54.332;48.386;2023-07-20T02:13:39;5.72;;;2.00;;
38529;SDS011;24301;54.332;48.386;2023-07-20T02:16:05;6.80;;;2.22;;
38529;SDS011;24301;54.332;48.386;2023-07-20T02:18:31;3.33;;;1.90;;
38529;SDS011;24301;54.332;48.386;2023-07-20T02:20:56;5.40;;;2.13;;
38529;SDS011;24301;54.332;48.386;2023-07-20T02:23:22;5.18;;;1.83;;
38529;SDS011;24301;54.332;48.386;2023-07-20T02:25:48;5.35;;;1.90;;
38529;SDS011;24301;54.332;48.386;2023-07-20T02:28:14;4.07;;;2.05;;
38529;SDS011;24301;54.332;48.386;2023-07-20T02:30:40;4.32;;;2.03;;
38529;SDS011;24301;54.332;48.386;2023-07-20T02:33:07;4.55;;;1.50;;
38529;SDS011;24301;54.332;48.386;2023-07-20T02:35:33;3.13;;;1.70;;
38529;SDS011;24301;54.332;48.386;2023-07-20T02:37:58;5.38;;;1.48;;
38529;SDS011;24301;54.332;48.386;2023-07-20T02:40:24;2.55;;;1.50;;
38529;SDS011;24301;54.332;48.386;2023-07-20T02:42:50;2.53;;;1.40;;
38529;SDS011;24301;54.332;48.386;2023-07-20T02:45:16;3.20;;;1.77;;
38529;SDS011;24301;54.332;48.386;2023-07-20T02:47:42;10.48;;;2.10;;
38529;SDS011;24301;54.332;48.386;2023-07-20T02:50:08;3.38;;;1.20;;
38529;SDS011;24301;54.332;48.386;2023-07-20T02:52:34;3.42;;;1.60;;
38529;SDS011;24301;54.332;48.386;2023-07-20T02:55:00;2.30;;;1.30;;
38529;SDS011;24301;54.332;48.386;2023-07-20T02:57:26;3.75;;;1.65;;
38529;SDS011;24301;54.332;48.386;2023-07-20T02:59:52;3.92;;;1.70;;
38529;SDS011;24301;54.332;48.386;2023-07-20T03:02:19;5.70;;;1.70;;
38529;SDS011;24301;54.332;48.386;2023-07-20T03:04:44;2.85;;;1.50;;
38529;SDS011;24301;54.332;48.386;2023-07-20T03:07:10;3.65;;;1.30;;
38529;SDS011;24301;54.332;48.386;2023-07-20T03:09:36;4.57;;;1.88;;
38529;SDS011;24301;54.332;48.386;2023-07-20T03:12:02;4.43;;;2.15;;
38529;SDS011;24301;54.332;48.386;2023-07-20T03:14:30;3.60;;;1.83;;
38529;SDS011;24301;54.332;48.386;2023-07-20T03:16:56;2.85;;;1.60;;
38529;SDS011;24301;54.332;48.386;2023-07-20T03:19:22;3.05;;;1.45;;
38529;SDS011;24301;54.332;48.386;2023-07-20T03:21:49;3.63;;;1.20;;
38529;SDS011;24301;54.332;48.386;2023-07-20T03:24:14;3.42;;;1.88;;
38529;SDS011;24301;54.332;48.386;2023-07-20T03:26:41;3.67;;;1.60;;
38529;SDS011;24301;54.332;48.386;2023-07-20T03:29:07;2.58;;;1.40;;
38529;SDS011;24301;54.332;48.386;2023-07-20T03:31:33;3.05;;;1.42;;
38529;SDS011;24301;54.332;48.386;2023-07-20T03:33:59;1.92;;;1.50;;
38529;SDS011;24301;54.332;48.386;2023-07-20T03:36:25;2.70;;;1.40;;
38529;SDS011;24301;54.332;48.386;2023-07-20T03:38:51;6.30;;;1.90;;
38529;SDS011;24301;54.332;48.386;2023-07-20T03:41:16;2.38;;;1.15;;
38529;SDS011;24301;54.332;48.386;2023-07-20T03:43:42;4.47;;;1.50;;
38529;SDS011;24301;54.332;48.386;2023-07-20T03:46:08;2.92;;;1.20;;
38529;SDS011;24301;54.332;48.386;2023-07-20T03:48:34;2.88;;;1.17;;
38529;SDS011;24301;54.332;48.386;2023-07-20T03:51:00;4.22;;;1.20;;
38529;SDS011;24301;54.332;48.386;2023-07-20T03:53:26;2.45;;;1.02;;
38529;SDS011;24301;54.332;48.386;2023-07-20T03:55:53;2.15;;;1.10;;
38529;SDS011;24301;54.332;48.386;2023-07-20T03:58:19;2.65;;;1.20;;
38529;SDS011;24301;54.332;48.386;2023-07-20T04:00:47;2.40;;;1.30;;
38529;SDS011;24301;54.332;48.386;2023-07-20T04:03:15;2.85;;;1.08;;
38529;SDS011;24301;54.332;48.386;2023-07-20T04:05:43;3.75;;;1.30;;
38529;SDS011;24301;54.332;48.386;2023-07-20T04:08:10;3.85;;;1.20;;
38529;SDS011;24301;54.332;48.386;2023-07-20T04:10:39;5.78;;;1.65;;
38529;SDS011;24301;54.332;48.386;2023-07-20T04:13:09;5.65;;;1.75;;
38529;SDS011;24301;54.332;48.386;2023-07-20T04:15:34;2.97;;;1.10;;
38529;SDS011;24301;54.332;48.386;2023-07-20T04:18:00;4.60;;;1.38;;
38529;SDS011;24301;54.332;48.386;2023-07-20T04:20:26;3.83;;;1.35;;
38529;SDS011;24301;54.332;48.386;2023-07-20T04:22:52;2.42;;;1.23;;
38529;SDS011;24301;54.332;48.386;2023-07-20T04:25:19;2.38;;;1.00;;
38529;SDS011;24301;54.332;48.386;2023-07-20T04:27:46;2.42;;;1.02;;
38529;SDS011;24301;54.332;48.386;2023-07-20T04:30:12;2.00;;;1.20;;
38529;SDS011;24301;54.332;48.386;2023-07-20T04:32:39;1.80;;;1.10;;
38529;SDS011;24301;54.332;48.386;2023-07-20T04:37:42;2.47;;;1.30;;
38529;SDS011;24301;54.332;48.386;2023-07-20T04:40:15;5.40;;;1.20;;
38529;SDS011;24301;54.332;48.386;2023-07-20T04:42:41;3.72;;;1.30;;
38529;SDS011;24301;54.332;48.386;2023-07-20T04:45:07;10.38;;;1.45;;
38529;SDS011;24301;54.332;48.386;2023-07-20T04:47:34;3.50;;;1.10;;
38529;SDS011;24301;54.332;48.386;2023-07-20T04:50:00;2.72;;;0.98;;
38529;SDS011;24301;54.332;48.386;2023-07-20T04:52:28;4.00;;;1.27;;
38529;SDS011;24301;54.332;48.386;2023-07-20T04:54:55;2.92;;;1.35;;
38529;SDS011;24301;54.332;48.386;2023-07-20T04:57:21;1.42;;;1.10;;
38529;SDS011;24301;54.332;48.386;2023-07-20T04:59:49;3.90;;;1.55;;
38529;SDS011;24301;54.332;48.386;2023-07-20T05:02:18;4.95;;;1.35;;
38529;SDS011;24301;54.332;48.386;2023-07-20T05:04:44;2.47;;;1.00;;
38529;SDS011;24301;54.332;48.386;2023-07-20T05:07:10;2.15;;;0.98;;
38529;SDS011;24301;54.332;48.386;2023-07-20T05:09:36;2.13;;;1.05;;
38529;SDS011;24301;54.332;48.386;2023-07-20T05:12:01;3.50;;;1.30;;
38529;SDS011;24301;54.332;48.386;2023-07-20T05:14:28;2.60;;;1.10;;
38529;SDS011;24301;54.332;48.386;2023-07-20T05:16:54;1.95;;;1.17;;
38529;SDS011;24301;54.332;48.386;2023-07-20T05:19:20;4.22;;;1.27;;
38529;SDS011;24301;54.332;48.386;2023-07-20T05:21:46;3.85;;;1.17;;
38529;SDS011;24301;54.332;48.386;2023-07-20T05:24:11;3.47;;;1.40;;
38529;SDS011;24301;54.332;48.386;2023-07-20T05:26:37;4.75;;;1.33;;
38529;SDS011;24301;54.332;48.386;2023-07-20T05:29:03;1.45;;;1.20;;
38529;SDS011;24301;54.332;48.386;2023-07-20T05:31:29;1.42;;;0.95;;
38529;SDS011;24301;54.332;48.386;2023-07-20T05:33:55;1.63;;;1.10;;
38529;SDS011;24301;54.332;48.386;2023-07-20T05:36:21;5.32;;;1.20;;
38529;SDS011;24301;54.332;48.386;2023-07-20T05:38:47;3.17;;;1.30;;
38529;SDS011;24301;54.332;48.386;2023-07-20T05:41:14;7.13;;;1.20;;
38529;SDS011;24301;54.332;48.386;2023-07-20T05:43:40;7.10;;;1.10;;
38529;SDS011;24301;54.332;48.386;2023-07-20T05:46:07;6.30;;;2.17;;
38529;SDS011;24301;54.332;48.386;2023-07-20T05:48:33;3.38;;;1.20;;
38529;SDS011;24301;54.332;48.386;2023-07-20T05:50:59;3.22;;;1.17;;
38529;SDS011;24301;54.332;48.386;2023-07-20T05:53:24;2.13;;;1.00;;
38529;SDS011;24301;54.332;48.386;2023-07-20T05:55:54;1.55;;;0.90;;
38529;SDS011;24301;54.332;48.386;2023-07-20T05:58:19;2.85;;;1.45;;
38529;SDS011;24301;54.332;48.386;2023-07-20T06:00:48;4.38;;;1.10;;
38529;SDS011;24301;54.332;48.386;2023-07-20T06:03:16;4.28;;;1.30;;
38529;SDS011;24301;54.332;48.386;2023-07-20T06:05:42;3.03;;;1.10;;
38529;SDS011;24301;54.332;48.386;2023-07-20T06:08:08;26.77;;;2.30;;
38529;SDS011;24301;54.332;48.386;2023-07-20T06:10:34;2.90;;;1.10;;
38529;SDS011;24301;54.332;48.386;2023-07-20T06:13:00;3.50;;;1.20;;
38529;SDS011;24301;54.332;48.386;2023-07-20T06:15:31;2.75;;;1.20;;
38529;SDS011;24301;54.332;48.386;2023-07-20T06:18:00;3.60;;;1.08;;
38529;SDS011;24301;54.332;48.386;2023-07-20T06:20:26;6.50;;;1.30;;
38529;SDS011;24301;54.332;48.386;2023-07-20T06:22:52;4.57;;;1.30;;
38529;SDS011;24301;54.332;48.386;2023-07-20T06:25:17;5.90;;;1.20;;
38529;SDS011;24301;54.332;48.386;2023-07-20T06:27:44;3.15;;;1.23;;
38529;SDS011;24301;54.332;48.386;2023-07-20T06:30:10;4.40;;;1.25;;
38529;SDS011;24301;54.332;48.386;2023-07-20T06:32:37;2.65;;;1.00;;
38529;SDS011;24301;54.332;48.386;2023-07-20T06:35:04;2.47;;;0.98;;
38529;SDS011;24301;54.332;48.386;2023-07-20T06:37:31;2.22;;;1.00;;
38529;SDS011;24301;54.332;48.386;2023-07-20T06:39:58;4.07;;;1.30;;
38529;SDS011;24301;54.332;48.386;2023-07-20T06:42:23;4.00;;;1.02;;
38529;SDS011;24301;54.332;48.386;2023-07-20T06:44:49;4.57;;;1.25;;
38529;SDS011;24301;54.332;48.386;2023-07-20T06:47:22;2.65;;;1.48;;
38529;SDS011;24301;54.332;48.386;2023-07-20T06:49:51;3.05;;;0.95;;
38529;SDS011;24301;54.332;48.386;2023-07-20T06:52:17;1.52;;;0.90;;
38529;SDS011;24301;54.332;48.386;2023-07-20T06:54:43;3.63;;;1.20;;
38529;SDS011;24301;54.332;48.386;2023-07-20T06:57:09;3.22;;;1.00;;
38529;SDS011;24301;54.332;48.386;2023-07-20T06:59:35;2.95;;;0.90;;
38529;SDS011;24301;54.332;48.386;2023-07-20T07:02:00;1.88;;;0.90;;
38529;SDS011;24301;54.332;48.386;2023-07-20T07:04:27;3.55;;;1.08;;
38529;SDS011;24301;54.332;48.386;2023-07-20T07:06:57;4.25;;;0.77;;
38529;SDS011;24301;54.332;48.386;2023-07-20T07:09:22;4.47;;;1.20;;
38529;SDS011;24301;54.332;48.386;2023-07-20T07:11:49;3.88;;;1.10;;
38529;SDS011;24301;54.332;48.386;2023-07-20T07:14:18;3.97;;;1.30;;
38529;SDS011;24301;54.332;48.386;2023-07-20T07:16:43;2.35;;;1.00;;
38529;SDS011;24301;54.332;48.386;2023-07-20T07:19:09;1.15;;;0.80;;
38529;SDS011;24301;54.332;48.386;2023-07-20T07:21:35;1.98;;;0.77;;
38529;SDS011;24301;54.332;48.386;2023-07-20T07:24:01;1.35;;;0.85;;
38529;SDS011;24301;54.332;48.386;2023-07-20T07:26:27;2.60;;;0.90;;
38529;SDS011;24301;54.332;48.386;2023-07-20T07:28:53;3.72;;;0.90;;
38529;SDS011;24301;54.332;48.386;2023-07-20T07:31:18;1.98;;;1.08;;
38529;SDS011;24301;54.332;48.386;2023-07-20T07:33:45;1.83;;;0.75;;
38529;SDS011;24301;54.332;48.386;2023-07-20T07:36:10;3.17;;;1.00;;
38529;SDS011;24301;54.332;48.386;2023-07-20T07:38:36;2.38;;;0.90;;
38529;SDS011;24301;54.332;48.386;2023-07-20T07:41:02;4.25;;;0.95;;
38529;SDS011;24301;54.332;48.386;2023-07-20T07:43:28;1.65;;;1.02;;
38529;SDS011;24301;54.332;48.386;2023-07-20T07:45:54;2.58;;;1.02;;
38529;SDS011;24301;54.332;48.386;2023-07-20T07:48:21;3.47;;;0.95;;
38529;SDS011;24301;54.332;48.386;2023-07-20T07:50:47;2.67;;;1.48;;
38529;SDS011;24301;54.332;48.386;2023-07-20T07:53:13;2.78;;;1.23;;
38529;SDS011;24301;54.332;48.386;2023-07-20T07:55:39;1.42;;;0.80;;
38529;SDS011;24301;54.332;48.386;2023-07-20T07:58:05;2.58;;;1.30;;
38529;SDS011;24301;54.332;48.386;2023-07-20T08:00:30;6.95;;;1.20;;
38529;SDS011;24301;54.332;48.386;2023-07-20T08:02:56;2.78;;;0.90;;
38529;SDS011;24301;54.332;48.386;2023-07-20T08:05:22;2.25;;;1.00;;
38529;SDS011;24301;54.332;48.386;2023-07-20T08:07:48;6.35;;;1.13;;
38529;SDS011;24301;54.332;48.386;2023-07-20T08:10:13;3.75;;;1.10;;
38529;SDS011;24301;54.332;48.386;2023-07-20T08:12:39;2.10;;;0.90;;
38529;SDS011;24301;54.332;48.386;2023-07-20T08:15:05;1.75;;;1.10;;
38529;SDS011;24301;54.332;48.386;2023-07-20T08:17:32;2.28;;;0.90;;
38529;SDS011;24301;54.332;48.386;2023-07-20T08:19:57;3.28;;;0.93;;
38529;SDS011;24301;54.332;48.386;2023-07-20T08:22:23;2.00;;;0.90;;
38529;SDS011;24301;54.332;48.386;2023-07-20T08:24:49;2.95;;;1.05;;
38529;SDS011;24301;54.332;48.386;2023-07-20T08:27:15;2.25;;;0.80;;
38529;SDS011;24301;54.332;48.386;2023-07-20T08:29:41;1.58;;;0.90;;
38529;SDS011;24301;54.332;48.386;2023-07-20T08:32:09;1.05;;;0.82;;
38529;SDS011;24301;54.332;48.386;2023-07-20T08:34:34;3.15;;;1.20;;
38529;SDS011;24301;54.332;48.386;2023-07-20T08:37:00;4.82;;;1.40;;
38529;SDS011;24301;54.332;48.386;2023-07-20T08:39:26;2.83;;;1.02;;
38529;SDS011;24301;54.332;48.386;2023-07-20T08:41:52;1.88;;;0.95;;
38529;SDS011;24301;54.332;48.386;2023-07-20T08:44:20;1.73;;;0.77;;
38529;SDS011;24301;54.332;48.386;2023-07-20T08:46:45;1.52;;;0.88;;
38529;SDS011;24301;54.332;48.386;2023-07-20T08:49:14;4.32;;;1.08;;
38529;SDS011;24301;54.332;48.386;2023-07-20T08:51:43;3.33;;;1.08;;
38529;SDS011;24301;54.332;48.386;2023-07-20T08:54:10;3.53;;;1.23;;
38529;SDS011;24301;54.332;48.386;2023-07-20T08:56:38;1.55;;;0.85;;
38529;SDS011;24301;54.332;48.386;2023-07-20T08:59:06;3.28;;;1.20;;
38529;SDS011;24301;54.332;48.386;2023-07-20T09:01:33;1.92;;;0.90;;
38529;SDS011;24301;54.332;48.386;2023-07-20T09:04:01;7.57;;;1.30;;
38529;SDS011;24301;54.332;48.386;2023-07-20T09:06:27;2.13;;;1.30;;
38529;SDS011;24301;54.332;48.386;2023-07-20T09:08:53;8.40;;;1.70;;
38529;SDS011;24301;54.332;48.386;2023-07-20T09:11:18;2.85;;;1.35;;
38529;SDS011;24301;54.332;48.386;2023-07-20T09:13:44;1.30;;;0.90;;
38529;SDS011;24301;54.332;48.386;2023-07-20T09:16:13;3.30;;;1.13;;
38529;SDS011;24301;54.332;48.386;2023-07-20T09:18:40;3.40;;;1.20;;
38529;SDS011;24301;54.332;48.386;2023-07-20T09:21:09;5.85;;;1.00;;
38529;SDS011;24301;54.332;48.386;2023-07-20T09:23:36;3.42;;;0.90;;
38529;SDS011;24301;54.332;48.386;2023-07-20T09:26:10;1.10;;;0.73;;
38529;SDS011;24301;54.332;48.386;2023-07-20T09:28:48;1.80;;;0.70;;
38529;SDS011;24301;54.332;48.386;2023-07-20T09:31:16;2.42;;;0.90;;
38529;SDS011;24301;54.332;48.386;2023-07-20T09:33:44;3.22;;;0.77;;
38529;SDS011;24301;54.332;48.386;2023-07-20T09:36:10;1.27;;;0.98;;
38529;SDS011;24301;54.332;48.386;2023-07-20T09:38:37;3.22;;;0.60;;
38529;SDS011;24301;54.332;48.386;2023-07-20T09:41:05;1.65;;;0.98;;
38529;SDS011;24301;54.332;48.386;2023-07-20T09:43:31;3.50;;;0.85;;
38529;SDS011;24301;54.332;48.386;2023-07-20T09:45:59;1.65;;;0.70;;
38529;SDS011;24301;54.332;48.386;2023-07-20T09:48:25;0.95;;;0.73;;
38529;SDS011;24301;54.332;48.386;2023-07-20T09:50:54;1.90;;;0.85;;
38529;SDS011;24301;54.332;48.386;2023-07-20T09:53:21;4.40;;;1.33;;
38529;SDS011;24301;54.332;48.386;2023-07-20T09:55:49;3.72;;;1.10;;
38529;SDS011;24301;54.332;48.386;2023-07-20T09:58:15;3.00;;;0.75;;
38529;SDS011;24301;54.332;48.386;2023-07-20T10:00:42;3.38;;;1.25;;
38529;SDS011;24301;54.332;48.386;2023-07-20T10:03:17;0.73;;;0.55;;
38529;SDS011;24301;54.332;48.386;2023-07-20T10:05:48;2.05;;;0.75;;
38529;SDS011;24301;54.332;48.386;2023-07-20T10:08:23;1.02;;;0.60;;
38529;SDS011;24301;54.332;48.386;2023-07-20T10:10:50;1.55;;;0.80;;
38529;SDS011;24301;54.332;48.386;2023-07-20T10:13:26;2.15;;;0.77;;
38529;SDS011;24301;54.332;48.386;2023-07-20T10:15:54;1.55;;;0.80;;
38529;SDS011;24301;54.332;48.386;2023-07-20T10:18:27;1.58;;;1.13;;
38529;SDS011;24301;54.332;48.386;2023-07-20T10:20:54;1.83;;;0.90;;
38529;SDS011;24301;54.332;48.386;2023-07-20T10:23:22;1.58;;;1.00;;
38529;SDS011;24301;54.332;48.386;2023-07-20T10:25:49;2.25;;;1.45;;
38529;SDS011;24301;54.332;48.386;2023-07-20T10:28:18;0.73;;;0.60;;
38529;SDS011;24301;54.332;48.386;2023-07-20T10:30:43;1.15;;;0.60;;
38529;SDS011;24301;54.332;48.386;2023-07-20T10:33:10;1.27;;;0.80;;
38529;SDS011;24301;54.332;48.386;2023-07-20T10:38:17;2.10;;;0.70;;
38529;SDS011;24301;54.332;48.386;2023-07-20T10:40:43;2.03;;;0.85;;
38529;SDS011;24301;54.332;48.386;2023-07-20T10:43:22;2.92;;;0.68;;
38529;SDS011;24301;54.332;48.386;2023-07-20T10:45:48;1.65;;;0.60;;
38529;SDS011;24301;54.332;48.386;2023-07-20T10:48:21;2.60;;;1.10;;
38529;SDS011;24301;54.332;48.386;2023-07-20T10:51:12;2.78;;;0.93;;
38529;SDS011;24301;54.332;48.386;2023-07-20T10:53:57;4.10;;;1.10;;
38529;SDS011;24301;54.332;48.386;2023-07-20T10:56:27;3.65;;;1.00;;
38529;SDS011;24301;54.332;48.386;2023-07-20T10:58:57;1.38;;;1.00;;
38529;SDS011;24301;54.332;48.386;2023-07-20T11:01:28;3.97;;;0.95;;
38529;SDS011;24301;54.332;48.386;2023-07-20T11:03:58;1.83;;;1.25;;
38529;SDS011;24301;54.332;48.386;2023-07-20T11:11:26;2.78;;;1.90;;
38529;SDS011;24301;54.332;48.386;2023-07-20T11:13:57;4.70;;;1.80;;
38529;SDS011;24301;54.332;48.386;2023-07-20T11:16:40;3.65;;;1.25;;
38529;SDS011;24301;54.332;48.386;2023-07-20T11:19:15;2.58;;;0.80;;
38529;SDS011;24301;54.332;48.386;2023-07-20T11:21:43;3.05;;;1.10;;
38529;SDS011;24301;54.332;48.386;2023-07-20T11:24:10;3.90;;;0.80;;
38529;SDS011;24301;54.332;48.386;2023-07-20T11:26:51;1.38;;;0.60;;
38529;SDS011;24301;54.332;48.386;2023-07-20T11:29:19;3.15;;;1.13;;
38529;SDS011;24301;54.332;48.386;2023-07-20T11:31:50;0.90;;;0.90;;
38529;SDS011;24301;54.332;48.386;2023-07-20T11:34:16;2.28;;;1.10;;
38529;SDS011;24301;54.332;48.386;2023-07-20T11:36:44;1.73;;;0.80;;
38529;SDS011;24301;54.332;48.386;2023-07-20T11:39:12;2.53;;;0.85;;
38529;SDS011;24301;54.332;48.386;2023-07-20T11:41:43;2.08;;;1.17;;
38529;SDS011;24301;54.332;48.386;2023-07-20T11:44:11;1.65;;;0.77;;
38529;SDS011;24301;54.332;48.386;2023-07-20T11:46:40;4.70;;;1.15;;
38529;SDS011;24301;54.332;48.386;2023-07-20T11:49:10;1.35;;;0.63;;
38529;SDS011;24301;54.332;48.386;2023-07-20T11:51:38;2.70;;;0.70;;
38529;SDS011;24301;54.332;48.386;2023-07-20T11:54:06;1.75;;;0.70;;
38529;SDS011;24301;54.332;48.386;2023-07-20T11:56:33;4.65;;;1.88;;
38529;SDS011;24301;54.332;48.386;2023-07-20T11:58:59;3.40;;;1.67;;
38529;SDS011;24301;54.332;48.386;2023-07-20T12:01:27;2.55;;;1.00;;
38529;SDS011;24301;54.332;48.386;2023-07-20T12:04:01;5.45;;;1.17;;
38529;SDS011;24301;54.332;48.386;2023-07-20T12:06:28;2.05;;;0.80;;
38529;SDS011;24301;54.332;48.386;2023-07-20T12:08:55;1.00;;;0.90;;
38529;SDS011;24301;54.332;48.386;2023-07-20T12:11:38;1.98;;;1.10;;
38529;SDS011;24301;54.332;48.386;2023-07-20T12:14:06;4.53;;;1.13;;
38529;SDS011;24301;54.332;48.386;2023-07-20T12:16:34;5.13;;;0.90;;
38529;SDS011;24301;54.332;48.386;2023-07-20T12:19:01;2.42;;;1.10;;
38529;SDS011;24301;54.332;48.386;2023-07-20T12:21:29;2.20;;;1.25;;
38529;SDS011;24301;54.332;48.386;2023-07-20T12:23:57;1.52;;;1.00;;
38529;SDS011;24301;54.332;48.386;2023-07-20T12:26:24;3.47;;;1.30;;
38529;SDS011;24301;54.332;48.386;2023-07-20T12:28:51;1.27;;;0.93;;
38529;SDS011;24301;54.332;48.386;2023-07-20T12:31:17;1.98;;;1.25;;
38529;SDS011;24301;54.332;48.386;2023-07-20T12:33:45;6.60;;;1.30;;
38529;SDS011;24301;54.332;48.386;2023-07-20T12:36:11;2.42;;;1.52;;
38529;SDS011;24301;54.332;48.386;2023-07-20T12:38:37;3.95;;;1.80;;
38529;SDS011;24301;54.332;48.386;2023-07-20T12:41:03;6.00;;;1.75;;
38529;SDS011;24301;54.332;48.386;2023-07-20T12:43:29;6.82;;;1.58;;
38529;SDS011;24301;54.332;48.386;2023-07-20T12:45:55;2.25;;;1.30;;
38529;SDS011;24301;54.332;48.386;2023-07-20T12:48:21;3.25;;;1.75;;
38529;SDS011;24301;54.332;48.386;2023-07-20T12:50:48;1.42;;;1.08;;
38529;SDS011;24301;54.332;48.386;2023-07-20T12:53:13;3.00;;;0.88;;
38529;SDS011;24301;54.332;48.386;2023-07-20T12:55:40;6.47;;;1.77;;
38529;SDS011;24301;54.332;48.386;2023-07-20T12:58:06;3.78;;;1.38;;
38529;SDS011;24301;54.332;48.386;2023-07-20T13:00:33;5.28;;;1.67;;
38529;SDS011;24301;54.332;48.386;2023-07-20T13:02:59;2.70;;;1.23;;
38529;SDS011;24301;54.332;48.386;2023-07-20T13:05:25;2.42;;;1.10;;
38529;SDS011;24301;54.332;48.386;2023-07-20T13:07:52;5.53;;;1.85;;
38529;SDS011;24301;54.332;48.386;2023-07-20T13:10:18;5.18;;;1.80;;
38529;SDS011;24301;54.332;48.386;2023-07-20T13:12:44;4.75;;;3.75;;
38529;SDS011;24301;54.332;48.386;2023-07-20T13:15:10;9.43;;;6.22;;
38529;SDS011;24301;54.332;48.386;2023-07-20T13:17:36;12.43;;;7.65;;
38529;SDS011;24301;54.332;48.386;2023-07-20T13:20:07;8.18;;;5.22;;
38529;SDS011;24301;54.332;48.386;2023-07-20T13:22:35;2.88;;;1.65;;
38529;SDS011;24301;54.332;48.386;2023-07-20T13:25:04;7.32;;;3.78;;
38529;SDS011;24301;54.332;48.386;2023-07-20T13:27:31;8.13;;;2.47;;
38529;SDS011;24301;54.332;48.386;2023-07-20T13:29:58;4.57;;;1.75;;
38529;SDS011;24301;54.332;48.386;2023-07-20T13:32:25;1.67;;;0.90;;
38529;SDS011;24301;54.332;48.386;2023-07-20T13:34:53;2.80;;;0.90;;
38529;SDS011;24301;54.332;48.386;2023-07-20T13:37:19;6.00;;;1.35;;
38529;SDS011;24301;54.332;48.386;2023-07-20T13:39:45;4.63;;;1.00;;
38529;SDS011;24301;54.332;48.386;2023-07-20T13:42:11;1.85;;;0.90;;
38529;SDS011;24301;54.332;48.386;2023-07-20T13:44:38;4.72;;;1.63;;
38529;SDS011;24301;54.332;48.386;2023-07-20T13:47:04;2.60;;;1.33;;
38529;SDS011;24301;54.332;48.386;2023-07-20T13:49:33;1.45;;;1.05;;
38529;SDS011;24301;54.332;48.386;2023-07-20T13:51:59;10.68;;;4.32;;
38529;SDS011;24301;54.332;48.386;2023-07-20T13:54:25;6.40;;;2.63;;
38529;SDS011;24301;54.332;48.386;2023-07-20T13:56:51;7.60;;;3.90;;
38529;SDS011;24301;54.332;48.386;2023-07-20T13:59:19;6.85;;;3.53;;
38529;SDS011;24301;54.332;48.386;2023-07-20T14:01:45;10.80;;;5.05;;
38529;SDS011;24301;54.332;48.386;2023-07-20T14:04:12;4.53;;;2.22;;
38529;SDS011;24301;54.332;48.386;2023-07-20T14:06:38;2.78;;;1.83;;
38529;SDS011;24301;54.332;48.386;2023-07-20T14:09:04;4.82;;;2.70;;
38529;SDS011;24301;54.332;48.386;2023-07-20T14:11:29;3.20;;;1.80;;
38529;SDS011;24301;54.332;48.386;2023-07-20T14:13:55;3.42;;;1.50;;
38529;SDS011;24301;54.332;48.386;2023-07-20T14:16:23;2.30;;;0.90;;
38529;SDS011;24301;54.332;48.386;2023-07-20T14:18:50;2.95;;;1.27;;
38529;SDS011;24301;54.332;48.386;2023-07-20T14:21:16;2.35;;;0.80;;
38529;SDS011;24301;54.332;48.386;2023-07-20T14:23:47;2.42;;;1.00;;
38529;SDS011;24301;54.332;48.386;2023-07-20T14:26:14;1.33;;;1.00;;
38529;SDS011;24301;54.332;48.386;2023-07-20T14:28:41;2.42;;;0.93;;
38529;SDS011;24301;54.332;48.386;2023-07-20T14:31:07;1.65;;;0.88;;
38529;SDS011;24301;54.332;48.386;2023-07-20T14:33:33;1.85;;;0.82;;
38529;SDS011;24301;54.332;48.386;2023-07-20T14:35:59;2.15;;;0.90;;
38529;SDS011;24301;54.332;48.386;2023-07-20T14:38:30;3.88;;;0.80;;
38529;SDS011;24301;54.332;48.386;2023-07-20T14:40:57;3.28;;;1.08;;
38529;SDS011;24301;54.332;48.386;2023-07-20T14:43:22;2.53;;;1.35;;
38529;SDS011;24301;54.332;48.386;2023-07-20T14:45:48;4.20;;;1.65;;
38529;SDS011;24301;54.332;48.386;2023-07-20T14:48:14;3.75;;;1.05;;
38529;SDS011;24301;54.332;48.386;2023-07-20T14:50:40;1.83;;;0.98;;
38529;SDS011;24301;54.332;48.386;2023-07-20T14:53:06;1.95;;;1.00;;